sensor_id;sensor_type;location;lat;lon;timestamp;P1;durP1;ratioP1;P2;durP2;ratioP2
59770;SDS011;45649;53.014;6.600;2022-07-03T00:01:12;2.23;;;1.87;;
59770;SDS011;45649;53.014;6.600;2022-07-03T00:03:38;2.03;;;1.87;;
59770;SDS011;45649;53.014;6.600;2022-07-03T00:06:04;2.50;;;2.20;;
59770;SDS011;45649;53.014;6.600;2022-07-03T00:08:31;3.30;;;2.03;;
59770;SDS011;45649;53.014;6.600;2022-07-03T00:10:57;3.90;;;2.00;;
59770;SDS011;45649;53.014;6.600;2022-07-03T00:13:23;4.00;;;2.10;;
59770;SDS011;45649;53.014;6.600;2022-07-03T00:15:48;4.33;;;2.13;;
59770;SDS011;45649;53.014;6.600;2022-07-03T00:18:15;3.47;;;2.00;;
59770;SDS011;45649;53.014;6.600;2022-07-03T00:20:45;2.50;;;2.30;;
59770;SDS011;45649;53.014;6.600;2022-07-03T00:23:13;2.50;;;2.10;;
59770;SDS011;45649;53.014;6.600;2022-07-03T00:25:42;2.57;;;2.20;;
59770;SDS011;45649;53.014;6.600;2022-07-03T00:28:09;2.30;;;2.10;;
59770;SDS011;45649;53.014;6.600;2022-07-03T00:30:35;2.30;;;2.10;;
59770;SDS011;45649;53.014;6.600;2022-07-03T00:33:02;2.90;;;2.17;;
59770;SDS011;45649;53.014;6.600;2022-07-03T00:35:33;2.17;;;2.00;;
59770;SDS011;45649;53.014;6.600;2022-07-03T00:38:01;1.87;;;1.77;;
59770;SDS011;45649;53.014;6.600;2022-07-03T00:40:27;2.53;;;1.90;;
59770;SDS011;45649;53.014;6.600;2022-07-03T00:42:52;2.27;;;2.17;;
59770;SDS011;45649;53.014;6.600;2022-07-03T00:45:19;2.60;;;2.10;;
59770;SDS011;45649;53.014;6.600;2022-07-03T00:47:46;2.03;;;1.93;;
59770;SDS011;45649;53.014;6.600;2022-07-03T00:50:12;2.33;;;2.13;;
59770;SDS011;45649;53.014;6.600;2022-07-03T00:52:39;2.30;;;2.10;;
59770;SDS011;45649;53.014;6.600;2022-07-03T00:55:14;2.23;;;2.03;;
59770;SDS011;45649;53.014;6.600;2022-07-03T00:57:45;2.37;;;2.00;;
59770;SDS011;45649;53.014;6.600;2022-07-03T01:00:13;2.53;;;2.20;;
59770;SDS011;45649;53.014;6.600;2022-07-03T01:02:44;2.40;;;2.20;;
59770;SDS011;45649;53.014;6.600;2022-07-03T01:17:08;3.97;;;2.53;;
59770;SDS011;45649;53.014;6.600;2022-07-03T01:19:43;2.70;;;2.50;;
59770;SDS011;45649;53.014;6.600;2022-07-03T01:30:20;4.40;;;2.43;;
59770;SDS011;45649;53.014;6.600;2022-07-03T01:32:52;2.60;;;2.50;;
59770;SDS011;45649;53.014;6.600;2022-07-03T01:36:09;2.83;;;2.17;;
59770;SDS011;45649;53.014;6.600;2022-07-03T01:38:12;3.20;;;2.60;;
59770;SDS011;45649;53.014;6.600;2022-07-03T01:40:40;2.40;;;2.30;;
59770;SDS011;45649;53.014;6.600;2022-07-03T01:43:11;2.93;;;2.73;;
59770;SDS011;45649;53.014;6.600;2022-07-03T01:45:42;2.87;;;2.67;;
59770;SDS011;45649;53.014;6.600;2022-07-03T01:48:09;3.00;;;2.70;;
59770;SDS011;45649;53.014;6.600;2022-07-03T01:50:37;3.33;;;2.50;;
59770;SDS011;45649;53.014;6.600;2022-07-03T01:53:06;2.80;;;2.60;;
59770;SDS011;45649;53.014;6.600;2022-07-03T01:55:34;3.63;;;2.60;;
59770;SDS011;45649;53.014;6.600;2022-07-03T01:58:03;2.67;;;2.47;;
59770;SDS011;45649;53.014;6.600;2022-07-03T02:00:29;2.70;;;2.50;;
59770;SDS011;45649;53.014;6.600;2022-07-03T02:05:32;3.40;;;2.73;;
59770;SDS011;45649;53.014;6.600;2022-07-03T02:10:44;2.80;;;2.60;;
59770;SDS011;45649;53.014;6.600;2022-07-03T02:13:18;3.20;;;3.00;;
59770;SDS011;45649;53.014;6.600;2022-07-03T02:15:49;2.90;;;2.70;;
59770;SDS011;45649;53.014;6.600;2022-07-03T02:21:12;3.10;;;2.80;;
59770;SDS011;45649;53.014;6.600;2022-07-03T02:23:43;3.77;;;2.80;;
59770;SDS011;45649;53.014;6.600;2022-07-03T02:26:37;2.90;;;2.70;;
59770;SDS011;45649;53.014;6.600;2022-07-03T02:29:07;3.43;;;2.70;;
59770;SDS011;45649;53.014;6.600;2022-07-03T02:31:38;2.57;;;2.37;;
59770;SDS011;45649;53.014;6.600;2022-07-03T02:34:07;2.57;;;2.37;;
59770;SDS011;45649;53.014;6.600;2022-07-03T02:36:36;2.80;;;2.60;;
59770;SDS011;45649;53.014;6.600;2022-07-03T02:39:06;2.63;;;2.30;;
59770;SDS011;45649;53.014;6.600;2022-07-03T02:41:42;3.10;;;2.80;;
59770;SDS011;45649;53.014;6.600;2022-07-03T02:44:23;3.10;;;2.80;;
59770;SDS011;45649;53.014;6.600;2022-07-03T02:47:16;3.07;;;2.80;;
59770;SDS011;45649;53.014;6.600;2022-07-03T02:52:23;3.10;;;2.90;;
59770;SDS011;45649;53.014;6.600;2022-07-03T02:58:16;3.20;;;3.00;;
59770;SDS011;45649;53.014;6.600;2022-07-03T03:00:57;3.87;;;3.10;;
59770;SDS011;45649;53.014;6.600;2022-07-03T03:03:28;3.00;;;2.80;;
59770;SDS011;45649;53.014;6.600;2022-07-03T03:05:55;3.00;;;2.80;;
59770;SDS011;45649;53.014;6.600;2022-07-03T03:11:19;3.90;;;2.90;;
59770;SDS011;45649;53.014;6.600;2022-07-03T03:13:56;2.90;;;2.70;;
59770;SDS011;45649;53.014;6.600;2022-07-03T03:16:24;3.60;;;3.30;;
59770;SDS011;45649;53.014;6.600;2022-07-03T03:18:51;4.23;;;2.90;;
59770;SDS011;45649;53.014;6.600;2022-07-03T03:21:18;2.97;;;2.77;;
59770;SDS011;45649;53.014;6.600;2022-07-03T03:23:49;3.57;;;2.80;;
59770;SDS011;45649;53.014;6.600;2022-07-03T03:26:20;3.23;;;2.90;;
59770;SDS011;45649;53.014;6.600;2022-07-03T03:28:48;3.33;;;3.03;;
59770;SDS011;45649;53.014;6.600;2022-07-03T03:31:15;3.33;;;3.03;;
59770;SDS011;45649;53.014;6.600;2022-07-03T03:33:42;3.20;;;2.90;;
59770;SDS011;45649;53.014;6.600;2022-07-03T03:36:10;5.03;;;3.20;;
59770;SDS011;45649;53.014;6.600;2022-07-03T03:38:38;3.50;;;3.00;;
59770;SDS011;45649;53.014;6.600;2022-07-03T03:41:05;3.47;;;3.17;;
59770;SDS011;45649;53.014;6.600;2022-07-03T03:43:32;3.43;;;3.23;;
59770;SDS011;45649;53.014;6.600;2022-07-03T03:45:59;3.13;;;2.93;;
59770;SDS011;45649;53.014;6.600;2022-07-03T03:48:26;3.13;;;2.70;;
59770;SDS011;45649;53.014;6.600;2022-07-03T03:50:53;3.47;;;2.60;;
59770;SDS011;45649;53.014;6.600;2022-07-03T03:53:23;3.03;;;2.70;;
59770;SDS011;45649;53.014;6.600;2022-07-03T03:56:06;3.37;;;2.70;;
59770;SDS011;45649;53.014;6.600;2022-07-03T03:58:34;2.87;;;2.63;;
59770;SDS011;45649;53.014;6.600;2022-07-03T04:01:01;3.10;;;2.90;;
59770;SDS011;45649;53.014;6.600;2022-07-03T04:03:29;3.37;;;3.07;;
59770;SDS011;45649;53.014;6.600;2022-07-03T04:05:55;3.83;;;2.63;;
59770;SDS011;45649;53.014;6.600;2022-07-03T04:08:22;3.40;;;2.73;;
59770;SDS011;45649;53.014;6.600;2022-07-03T04:10:49;2.77;;;2.57;;
59770;SDS011;45649;53.014;6.600;2022-07-03T04:13:15;2.97;;;2.77;;
59770;SDS011;45649;53.014;6.600;2022-07-03T04:15:41;3.07;;;2.87;;
59770;SDS011;45649;53.014;6.600;2022-07-03T04:18:08;4.67;;;2.93;;
59770;SDS011;45649;53.014;6.600;2022-07-03T04:20:34;3.00;;;2.80;;
59770;SDS011;45649;53.014;6.600;2022-07-03T04:23:00;3.10;;;2.87;;
59770;SDS011;45649;53.014;6.600;2022-07-03T04:25:26;3.07;;;2.87;;
59770;SDS011;45649;53.014;6.600;2022-07-03T04:27:52;2.70;;;2.57;;
59770;SDS011;45649;53.014;6.600;2022-07-03T04:30:17;3.70;;;2.90;;
59770;SDS011;45649;53.014;6.600;2022-07-03T04:32:43;3.10;;;2.90;;
59770;SDS011;45649;53.014;6.600;2022-07-03T04:35:10;3.10;;;2.90;;
59770;SDS011;45649;53.014;6.600;2022-07-03T04:37:36;3.40;;;3.10;;
59770;SDS011;45649;53.014;6.600;2022-07-03T04:40:02;3.57;;;3.30;;
59770;SDS011;45649;53.014;6.600;2022-07-03T04:42:29;3.23;;;3.03;;
59770;SDS011;45649;53.014;6.600;2022-07-03T04:44:54;3.03;;;2.83;;
59770;SDS011;45649;53.014;6.600;2022-07-03T04:47:20;2.73;;;2.63;;
59770;SDS011;45649;53.014;6.600;2022-07-03T04:49:46;3.80;;;2.87;;
59770;SDS011;45649;53.014;6.600;2022-07-03T04:52:12;2.97;;;2.77;;
59770;SDS011;45649;53.014;6.600;2022-07-03T04:54:37;3.03;;;2.90;;
59770;SDS011;45649;53.014;6.600;2022-07-03T04:57:04;3.87;;;3.57;;
59770;SDS011;45649;53.014;6.600;2022-07-03T04:59:30;3.10;;;2.90;;
59770;SDS011;45649;53.014;6.600;2022-07-03T05:01:56;4.63;;;3.20;;
59770;SDS011;45649;53.014;6.600;2022-07-03T05:04:25;3.17;;;2.97;;
59770;SDS011;45649;53.014;6.600;2022-07-03T05:06:51;2.83;;;2.63;;
59770;SDS011;45649;53.014;6.600;2022-07-03T05:09:16;3.43;;;3.10;;
59770;SDS011;45649;53.014;6.600;2022-07-03T05:11:43;3.10;;;2.80;;
59770;SDS011;45649;53.014;6.600;2022-07-03T05:14:10;2.77;;;2.57;;
59770;SDS011;45649;53.014;6.600;2022-07-03T05:16:35;3.20;;;3.00;;
59770;SDS011;45649;53.014;6.600;2022-07-03T05:19:01;3.50;;;3.20;;
59770;SDS011;45649;53.014;6.600;2022-07-03T05:21:27;4.00;;;3.30;;
59770;SDS011;45649;53.014;6.600;2022-07-03T05:23:54;3.50;;;3.20;;
59770;SDS011;45649;53.014;6.600;2022-07-03T05:26:20;4.57;;;3.33;;
59770;SDS011;45649;53.014;6.600;2022-07-03T05:28:46;3.30;;;3.00;;
59770;SDS011;45649;53.014;6.600;2022-07-03T05:31:12;3.27;;;3.00;;
59770;SDS011;45649;53.014;6.600;2022-07-03T05:33:38;3.50;;;3.30;;
59770;SDS011;45649;53.014;6.600;2022-07-03T05:36:04;3.40;;;3.10;;
59770;SDS011;45649;53.014;6.600;2022-07-03T05:38:30;3.10;;;2.80;;
59770;SDS011;45649;53.014;6.600;2022-07-03T05:41:15;3.43;;;2.90;;
59770;SDS011;45649;53.014;6.600;2022-07-03T05:43:41;3.03;;;2.83;;
59770;SDS011;45649;53.014;6.600;2022-07-03T05:46:07;3.40;;;3.20;;
59770;SDS011;45649;53.014;6.600;2022-07-03T05:48:33;3.70;;;2.80;;
59770;SDS011;45649;53.014;6.600;2022-07-03T05:50:59;3.00;;;2.80;;
59770;SDS011;45649;53.014;6.600;2022-07-03T05:53:24;2.47;;;2.30;;
59770;SDS011;45649;53.014;6.600;2022-07-03T05:55:51;2.83;;;2.43;;
59770;SDS011;45649;53.014;6.600;2022-07-03T05:58:18;5.50;;;2.67;;
59770;SDS011;45649;53.014;6.600;2022-07-03T06:00:43;2.57;;;2.37;;
59770;SDS011;45649;53.014;6.600;2022-07-03T06:03:09;2.27;;;2.10;;
59770;SDS011;45649;53.014;6.600;2022-07-03T06:05:35;1.97;;;1.77;;
59770;SDS011;45649;53.014;6.600;2022-07-03T06:08:02;1.63;;;1.50;;
59770;SDS011;45649;53.014;6.600;2022-07-03T06:10:28;1.63;;;1.50;;
59770;SDS011;45649;53.014;6.600;2022-07-03T06:12:54;1.37;;;1.27;;
59770;SDS011;45649;53.014;6.600;2022-07-03T06:15:20;1.83;;;1.43;;
59770;SDS011;45649;53.014;6.600;2022-07-03T06:17:46;3.83;;;1.67;;
59770;SDS011;45649;53.014;6.600;2022-07-03T06:20:12;1.93;;;1.53;;
59770;SDS011;45649;53.014;6.600;2022-07-03T06:22:38;2.10;;;1.30;;
59770;SDS011;45649;53.014;6.600;2022-07-03T06:25:05;2.23;;;1.40;;
59770;SDS011;45649;53.014;6.600;2022-07-03T06:27:31;1.70;;;1.27;;
59770;SDS011;45649;53.014;6.600;2022-07-03T06:29:57;1.60;;;1.47;;
59770;SDS011;45649;53.014;6.600;2022-07-03T06:32:23;2.30;;;1.30;;
59770;SDS011;45649;53.014;6.600;2022-07-03T06:34:49;1.67;;;1.30;;
59770;SDS011;45649;53.014;6.600;2022-07-03T06:37:15;2.03;;;1.20;;
59770;SDS011;45649;53.014;6.600;2022-07-03T06:39:41;1.67;;;1.40;;
59770;SDS011;45649;53.014;6.600;2022-07-03T06:42:07;2.87;;;1.30;;
59770;SDS011;45649;53.014;6.600;2022-07-03T06:44:33;2.13;;;1.33;;
59770;SDS011;45649;53.014;6.600;2022-07-03T06:46:59;1.77;;;1.40;;
59770;SDS011;45649;53.014;6.600;2022-07-03T06:49:28;1.67;;;1.40;;
59770;SDS011;45649;53.014;6.600;2022-07-03T06:51:57;2.50;;;1.40;;
59770;SDS011;45649;53.014;6.600;2022-07-03T06:54:24;2.33;;;1.33;;
59770;SDS011;45649;53.014;6.600;2022-07-03T06:56:50;3.70;;;1.50;;
59770;SDS011;45649;53.014;6.600;2022-07-03T06:59:16;2.07;;;1.47;;
59770;SDS011;45649;53.014;6.600;2022-07-03T07:01:42;2.43;;;1.50;;
59770;SDS011;45649;53.014;6.600;2022-07-03T07:04:08;2.53;;;1.50;;
59770;SDS011;45649;53.014;6.600;2022-07-03T07:06:34;2.47;;;1.45;;
59770;SDS011;45649;53.014;6.600;2022-07-03T07:09:00;2.33;;;1.30;;
59770;SDS011;45649;53.014;6.600;2022-07-03T07:11:26;2.67;;;1.40;;
59770;SDS011;45649;53.014;6.600;2022-07-03T07:13:52;1.60;;;1.23;;
59770;SDS011;45649;53.014;6.600;2022-07-03T07:16:19;2.20;;;1.30;;
59770;SDS011;45649;53.014;6.600;2022-07-03T07:18:45;2.17;;;1.20;;
59770;SDS011;45649;53.014;6.600;2022-07-03T07:21:11;2.33;;;1.27;;
59770;SDS011;45649;53.014;6.600;2022-07-03T07:23:37;2.33;;;1.37;;
59770;SDS011;45649;53.014;6.600;2022-07-03T07:26:03;1.40;;;1.30;;
59770;SDS011;45649;53.014;6.600;2022-07-03T07:28:29;2.57;;;1.30;;
59770;SDS011;45649;53.014;6.600;2022-07-03T07:30:56;2.47;;;1.30;;
59770;SDS011;45649;53.014;6.600;2022-07-03T07:33:23;1.73;;;1.07;;
59770;SDS011;45649;53.014;6.600;2022-07-03T07:35:49;2.43;;;1.40;;
59770;SDS011;45649;53.014;6.600;2022-07-03T07:38:15;2.03;;;1.40;;
59770;SDS011;45649;53.014;6.600;2022-07-03T07:40:41;2.97;;;1.43;;
59770;SDS011;45649;53.014;6.600;2022-07-03T07:43:07;1.13;;;1.00;;
59770;SDS011;45649;53.014;6.600;2022-07-03T07:45:33;1.73;;;1.20;;
59770;SDS011;45649;53.014;6.600;2022-07-03T07:47:59;1.57;;;1.20;;
59770;SDS011;45649;53.014;6.600;2022-07-03T07:50:25;2.47;;;1.47;;
59770;SDS011;45649;53.014;6.600;2022-07-03T07:52:51;2.50;;;1.40;;
59770;SDS011;45649;53.014;6.600;2022-07-03T07:55:17;1.33;;;1.23;;
59770;SDS011;45649;53.014;6.600;2022-07-03T07:57:44;1.98;;;1.38;;
59770;SDS011;45649;53.014;6.600;2022-07-03T08:00:11;2.23;;;1.50;;
59770;SDS011;45649;53.014;6.600;2022-07-03T08:02:42;2.80;;;1.80;;
59770;SDS011;45649;53.014;6.600;2022-07-03T08:05:28;2.23;;;1.50;;
59770;SDS011;45649;53.014;6.600;2022-07-03T08:08:01;2.20;;;1.43;;
59770;SDS011;45649;53.014;6.600;2022-07-03T08:13:07;2.63;;;1.30;;
59770;SDS011;45649;53.014;6.600;2022-07-03T08:15:33;2.07;;;1.40;;
59770;SDS011;45649;53.014;6.600;2022-07-03T08:17:59;1.57;;;1.07;;
59770;SDS011;45649;53.014;6.600;2022-07-03T08:20:26;2.10;;;1.30;;
59770;SDS011;45649;53.014;6.600;2022-07-03T08:22:53;1.40;;;1.20;;
59770;SDS011;45649;53.014;6.600;2022-07-03T08:25:19;2.30;;;1.27;;
59770;SDS011;45649;53.014;6.600;2022-07-03T08:27:45;1.90;;;1.20;;
59770;SDS011;45649;53.014;6.600;2022-07-03T08:30:11;2.03;;;1.23;;
59770;SDS011;45649;53.014;6.600;2022-07-03T08:32:42;2.13;;;1.30;;
59770;SDS011;45649;53.014;6.600;2022-07-03T08:35:11;1.70;;;1.43;;
59770;SDS011;45649;53.014;6.600;2022-07-03T08:37:37;1.57;;;1.20;;
59770;SDS011;45649;53.014;6.600;2022-07-03T08:40:06;2.23;;;1.40;;
59770;SDS011;45649;53.014;6.600;2022-07-03T08:42:33;1.97;;;1.20;;
59770;SDS011;45649;53.014;6.600;2022-07-03T08:45:06;1.97;;;1.00;;
59770;SDS011;45649;53.014;6.600;2022-07-03T08:47:33;2.80;;;1.43;;
59770;SDS011;45649;53.014;6.600;2022-07-03T08:50:02;1.88;;;1.20;;
59770;SDS011;45649;53.014;6.600;2022-07-03T08:52:28;1.83;;;1.20;;
59770;SDS011;45649;53.014;6.600;2022-07-03T08:54:55;1.03;;;0.97;;
59770;SDS011;45649;53.014;6.600;2022-07-03T08:57:21;2.40;;;0.90;;
59770;SDS011;45649;53.014;6.600;2022-07-03T08:59:51;1.47;;;0.90;;
59770;SDS011;45649;53.014;6.600;2022-07-03T09:02:18;2.00;;;0.90;;
59770;SDS011;45649;53.014;6.600;2022-07-03T09:04:44;1.20;;;0.93;;
59770;SDS011;45649;53.014;6.600;2022-07-03T09:07:10;2.17;;;1.10;;
59770;SDS011;45649;53.014;6.600;2022-07-03T09:09:38;2.37;;;1.00;;
59770;SDS011;45649;53.014;6.600;2022-07-03T09:12:05;1.33;;;1.00;;
59770;SDS011;45649;53.014;6.600;2022-07-03T09:14:32;1.50;;;0.90;;
59770;SDS011;45649;53.014;6.600;2022-07-03T09:16:58;1.40;;;0.90;;
59770;SDS011;45649;53.014;6.600;2022-07-03T09:19:43;1.77;;;0.90;;
59770;SDS011;45649;53.014;6.600;2022-07-03T09:22:27;1.47;;;0.77;;
59770;SDS011;45649;53.014;6.600;2022-07-03T09:25:03;2.83;;;1.03;;
59770;SDS011;45649;53.014;6.600;2022-07-03T09:27:29;1.43;;;1.10;;
59770;SDS011;45649;53.014;6.600;2022-07-03T09:32:32;2.13;;;0.93;;
59770;SDS011;45649;53.014;6.600;2022-07-03T09:40:19;1.95;;;0.88;;
59770;SDS011;45649;53.014;6.600;2022-07-03T09:43:02;0.90;;;0.90;;
59770;SDS011;45649;53.014;6.600;2022-07-03T09:48:37;1.30;;;0.73;;
59770;SDS011;45649;53.014;6.600;2022-07-03T09:56:24;2.90;;;0.70;;
59770;SDS011;45649;53.014;6.600;2022-07-03T10:01:40;1.70;;;0.80;;
59770;SDS011;45649;53.014;6.600;2022-07-03T10:06:51;0.97;;;0.70;;
59770;SDS011;45649;53.014;6.600;2022-07-03T10:09:18;0.90;;;0.70;;
59770;SDS011;45649;53.014;6.600;2022-07-03T10:11:49;1.00;;;0.60;;
59770;SDS011;45649;53.014;6.600;2022-07-03T10:14:15;0.93;;;0.60;;
59770;SDS011;45649;53.014;6.600;2022-07-03T10:16:46;0.63;;;0.60;;
59770;SDS011;45649;53.014;6.600;2022-07-03T10:19:17;2.33;;;0.70;;
59770;SDS011;45649;53.014;6.600;2022-07-03T10:21:47;2.80;;;0.70;;
59770;SDS011;45649;53.014;6.600;2022-07-03T10:24:28;0.60;;;0.60;;
59770;SDS011;45649;53.014;6.600;2022-07-03T10:26:55;1.00;;;0.80;;
59770;SDS011;45649;53.014;6.600;2022-07-03T10:29:23;1.80;;;1.00;;
59770;SDS011;45649;53.014;6.600;2022-07-03T10:31:50;1.60;;;0.90;;
59770;SDS011;45649;53.014;6.600;2022-07-03T10:34:20;1.63;;;0.73;;
59770;SDS011;45649;53.014;6.600;2022-07-03T10:37:02;2.20;;;0.90;;
59770;SDS011;45649;53.014;6.600;2022-07-03T10:42:16;1.00;;;0.87;;
59770;SDS011;45649;53.014;6.600;2022-07-03T10:45:10;0.70;;;0.70;;
59770;SDS011;45649;53.014;6.600;2022-07-03T10:47:46;1.47;;;0.90;;
59770;SDS011;45649;53.014;6.600;2022-07-03T10:50:22;1.60;;;0.80;;
59770;SDS011;45649;53.014;6.600;2022-07-03T10:52:49;2.77;;;0.93;;
59770;SDS011;45649;53.014;6.600;2022-07-03T10:55:17;3.10;;;0.93;;
59770;SDS011;45649;53.014;6.600;2022-07-03T10:57:44;1.20;;;0.70;;
59770;SDS011;45649;53.014;6.600;2022-07-03T11:00:32;1.73;;;0.90;;
59770;SDS011;45649;53.014;6.600;2022-07-03T11:09:10;2.13;;;0.80;;
59770;SDS011;45649;53.014;6.600;2022-07-03T11:11:40;1.77;;;1.00;;
59770;SDS011;45649;53.014;6.600;2022-07-03T11:14:29;1.83;;;0.80;;
59770;SDS011;45649;53.014;6.600;2022-07-03T11:19:45;1.40;;;0.90;;
59770;SDS011;45649;53.014;6.600;2022-07-03T11:22:51;0.73;;;0.73;;
59770;SDS011;45649;53.014;6.600;2022-07-03T11:25:22;0.80;;;0.80;;
59770;SDS011;45649;53.014;6.600;2022-07-03T11:27:50;1.23;;;1.00;;
59770;SDS011;45649;53.014;6.600;2022-07-03T11:30:18;1.43;;;0.80;;
59770;SDS011;45649;53.014;6.600;2022-07-03T11:32:53;1.03;;;0.70;;
59770;SDS011;45649;53.014;6.600;2022-07-03T11:35:43;1.90;;;0.87;;
59770;SDS011;45649;53.014;6.600;2022-07-03T11:38:23;1.00;;;0.80;;
59770;SDS011;45649;53.014;6.600;2022-07-03T11:40:51;2.40;;;1.00;;
59770;SDS011;45649;53.014;6.600;2022-07-03T11:43:18;1.73;;;0.83;;
59770;SDS011;45649;53.014;6.600;2022-07-03T11:45:45;2.47;;;1.10;;
59770;SDS011;45649;53.014;6.600;2022-07-03T11:48:16;2.03;;;1.00;;
59770;SDS011;45649;53.014;6.600;2022-07-03T11:50:58;3.17;;;1.33;;
59770;SDS011;45649;53.014;6.600;2022-07-03T11:53:32;2.83;;;1.20;;
59770;SDS011;45649;53.014;6.600;2022-07-03T11:56:09;3.17;;;1.20;;
59770;SDS011;45649;53.014;6.600;2022-07-03T11:58:43;2.37;;;1.30;;
59770;SDS011;45649;53.014;6.600;2022-07-03T12:03:53;1.90;;;1.13;;
59770;SDS011;45649;53.014;6.600;2022-07-03T12:09:11;1.80;;;1.20;;
59770;SDS011;45649;53.014;6.600;2022-07-03T12:12:22;1.67;;;1.03;;
59770;SDS011;45649;53.014;6.600;2022-07-03T12:17:05;1.77;;;1.10;;
59770;SDS011;45649;53.014;6.600;2022-07-03T12:19:31;1.53;;;1.00;;
59770;SDS011;45649;53.014;6.600;2022-07-03T12:21:58;1.37;;;0.83;;
59770;SDS011;45649;53.014;6.600;2022-07-03T12:24:24;2.70;;;1.10;;
59770;SDS011;45649;53.014;6.600;2022-07-03T12:26:50;2.07;;;1.10;;
59770;SDS011;45649;53.014;6.600;2022-07-03T12:29:16;1.33;;;1.00;;
59770;SDS011;45649;53.014;6.600;2022-07-03T12:31:43;1.77;;;1.03;;
59770;SDS011;45649;53.014;6.600;2022-07-03T12:34:10;1.70;;;0.90;;
59770;SDS011;45649;53.014;6.600;2022-07-03T12:36:37;1.17;;;0.80;;
59770;SDS011;45649;53.014;6.600;2022-07-03T12:39:03;1.70;;;1.00;;
59770;SDS011;45649;53.014;6.600;2022-07-03T12:41:30;1.23;;;0.80;;
59770;SDS011;45649;53.014;6.600;2022-07-03T12:43:57;2.73;;;0.90;;
59770;SDS011;45649;53.014;6.600;2022-07-03T12:48:57;1.97;;;1.10;;
59770;SDS011;45649;53.014;6.600;2022-07-03T12:54:32;2.50;;;0.70;;
59770;SDS011;45649;53.014;6.600;2022-07-03T13:02:41;1.53;;;0.57;;
59770;SDS011;45649;53.014;6.600;2022-07-03T13:05:16;1.57;;;0.77;;
59770;SDS011;45649;53.014;6.600;2022-07-03T13:07:44;1.40;;;0.60;;
59770;SDS011;45649;53.014;6.600;2022-07-03T13:10:11;2.53;;;0.90;;
59770;SDS011;45649;53.014;6.600;2022-07-03T13:12:55;1.07;;;0.70;;
59770;SDS011;45649;53.014;6.600;2022-07-03T13:15:26;1.17;;;0.73;;
59770;SDS011;45649;53.014;6.600;2022-07-03T13:20:19;3.67;;;0.90;;
59770;SDS011;45649;53.014;6.600;2022-07-03T13:22:46;2.30;;;0.97;;
59770;SDS011;45649;53.014;6.600;2022-07-03T13:25:13;2.13;;;1.10;;
59770;SDS011;45649;53.014;6.600;2022-07-03T13:27:39;1.87;;;0.83;;
59770;SDS011;45649;53.014;6.600;2022-07-03T13:30:05;2.20;;;0.90;;
59770;SDS011;45649;53.014;6.600;2022-07-03T13:32:31;1.20;;;0.80;;
59770;SDS011;45649;53.014;6.600;2022-07-03T13:34:57;1.10;;;0.70;;
59770;SDS011;45649;53.014;6.600;2022-07-03T13:37:23;1.63;;;1.00;;
59770;SDS011;45649;53.014;6.600;2022-07-03T13:39:48;1.37;;;1.00;;
59770;SDS011;45649;53.014;6.600;2022-07-03T13:42:15;0.70;;;0.70;;
59770;SDS011;45649;53.014;6.600;2022-07-03T13:44:42;2.17;;;0.77;;
59770;SDS011;45649;53.014;6.600;2022-07-03T13:47:08;1.50;;;0.73;;
59770;SDS011;45649;53.014;6.600;2022-07-03T13:49:34;1.60;;;1.00;;
59770;SDS011;45649;53.014;6.600;2022-07-03T13:52:00;1.48;;;0.90;;
59770;SDS011;45649;53.014;6.600;2022-07-03T13:54:26;1.10;;;0.80;;
59770;SDS011;45649;53.014;6.600;2022-07-03T13:56:52;2.90;;;0.80;;
59770;SDS011;45649;53.014;6.600;2022-07-03T13:59:17;1.43;;;0.90;;
59770;SDS011;45649;53.014;6.600;2022-07-03T14:01:44;3.00;;;1.00;;
59770;SDS011;45649;53.014;6.600;2022-07-03T14:04:10;2.40;;;1.50;;
59770;SDS011;45649;53.014;6.600;2022-07-03T14:06:36;1.30;;;1.20;;
59770;SDS011;45649;53.014;6.600;2022-07-03T14:09:02;3.70;;;1.67;;
59770;SDS011;45649;53.014;6.600;2022-07-03T14:11:28;3.47;;;1.77;;
59770;SDS011;45649;53.014;6.600;2022-07-03T14:13:54;4.87;;;2.00;;
59770;SDS011;45649;53.014;6.600;2022-07-03T14:16:21;3.90;;;1.90;;
59770;SDS011;45649;53.014;6.600;2022-07-03T14:18:47;5.70;;;1.60;;
59770;SDS011;45649;53.014;6.600;2022-07-03T14:21:13;2.63;;;1.10;;
59770;SDS011;45649;53.014;6.600;2022-07-03T14:23:38;1.67;;;1.27;;
59770;SDS011;45649;53.014;6.600;2022-07-03T14:26:04;3.30;;;1.10;;
59770;SDS011;45649;53.014;6.600;2022-07-03T14:28:30;1.63;;;1.30;;
59770;SDS011;45649;53.014;6.600;2022-07-03T14:31:15;3.20;;;1.20;;
59770;SDS011;45649;53.014;6.600;2022-07-03T14:33:44;1.63;;;1.03;;
59770;SDS011;45649;53.014;6.600;2022-07-03T14:36:12;1.53;;;1.20;;
59770;SDS011;45649;53.014;6.600;2022-07-03T14:38:38;1.40;;;1.17;;
59770;SDS011;45649;53.014;6.600;2022-07-03T14:41:04;2.13;;;1.50;;
59770;SDS011;45649;53.014;6.600;2022-07-03T14:43:29;1.30;;;1.20;;
59770;SDS011;45649;53.014;6.600;2022-07-03T14:45:55;3.03;;;1.20;;
59770;SDS011;45649;53.014;6.600;2022-07-03T14:48:21;1.40;;;1.30;;
59770;SDS011;45649;53.014;6.600;2022-07-03T14:50:47;1.43;;;1.30;;
59770;SDS011;45649;53.014;6.600;2022-07-03T14:53:13;1.50;;;1.40;;
59770;SDS011;45649;53.014;6.600;2022-07-03T14:55:39;2.40;;;1.60;;
59770;SDS011;45649;53.014;6.600;2022-07-03T15:00:34;2.00;;;1.90;;
59770;SDS011;45649;53.014;6.600;2022-07-03T15:03:06;1.80;;;1.70;;
59770;SDS011;45649;53.014;6.600;2022-07-03T15:05:41;1.90;;;1.73;;
59770;SDS011;45649;53.014;6.600;2022-07-03T15:10:55;1.90;;;1.60;;
59770;SDS011;45649;53.014;6.600;2022-07-03T15:13:25;2.20;;;1.20;;
59770;SDS011;45649;53.014;6.600;2022-07-03T15:15:52;1.58;;;1.42;;
59770;SDS011;45649;53.014;6.600;2022-07-03T15:18:33;1.60;;;1.30;;
59770;SDS011;45649;53.014;6.600;2022-07-03T15:20:59;1.10;;;1.10;;
59770;SDS011;45649;53.014;6.600;2022-07-03T15:23:26;2.10;;;1.00;;
59770;SDS011;45649;53.014;6.600;2022-07-03T15:25:52;1.17;;;1.07;;
59770;SDS011;45649;53.014;6.600;2022-07-03T15:28:19;1.73;;;1.00;;
59770;SDS011;45649;53.014;6.600;2022-07-03T15:30:49;1.10;;;1.00;;
59770;SDS011;45649;53.014;6.600;2022-07-03T15:33:18;1.30;;;1.20;;
59770;SDS011;45649;53.014;6.600;2022-07-03T15:35:48;1.37;;;1.10;;
59770;SDS011;45649;53.014;6.600;2022-07-03T15:38:27;1.97;;;1.10;;
59770;SDS011;45649;53.014;6.600;2022-07-03T15:41:02;1.30;;;1.20;;
59770;SDS011;45649;53.014;6.600;2022-07-03T15:49:34;1.50;;;1.33;;
59770;SDS011;45649;53.014;6.600;2022-07-03T15:57:32;2.50;;;1.70;;
59770;SDS011;45649;53.014;6.600;2022-07-03T16:00:19;1.93;;;1.57;;
59770;SDS011;45649;53.014;6.600;2022-07-03T16:05:37;2.70;;;1.60;;
59770;SDS011;45649;53.014;6.600;2022-07-03T16:08:05;1.90;;;1.80;;
59770;SDS011;45649;53.014;6.600;2022-07-03T16:10:32;2.20;;;2.10;;
59770;SDS011;45649;53.014;6.600;2022-07-03T16:12:59;2.50;;;1.90;;
59770;SDS011;45649;53.014;6.600;2022-07-03T16:15:29;2.53;;;2.10;;
59770;SDS011;45649;53.014;6.600;2022-07-03T16:17:56;2.53;;;2.20;;
59770;SDS011;45649;53.014;6.600;2022-07-03T16:20:26;3.70;;;2.00;;
59770;SDS011;45649;53.014;6.600;2022-07-03T16:23:00;2.50;;;2.30;;
59770;SDS011;45649;53.014;6.600;2022-07-03T16:25:28;2.53;;;2.10;;
59770;SDS011;45649;53.014;6.600;2022-07-03T16:28:03;2.83;;;2.60;;
59770;SDS011;45649;53.014;6.600;2022-07-03T16:30:31;2.20;;;2.10;;
59770;SDS011;45649;53.014;6.600;2022-07-03T16:32:58;2.07;;;1.97;;
59770;SDS011;45649;53.014;6.600;2022-07-03T16:35:39;2.60;;;2.10;;
59770;SDS011;45649;53.014;6.600;2022-07-03T16:38:08;2.60;;;2.17;;
59770;SDS011;45649;53.014;6.600;2022-07-03T16:40:57;2.23;;;1.80;;
59770;SDS011;45649;53.014;6.600;2022-07-03T16:43:27;2.20;;;2.10;;
59770;SDS011;45649;53.014;6.600;2022-07-03T16:45:57;2.23;;;2.00;;
59770;SDS011;45649;53.014;6.600;2022-07-03T16:48:27;2.37;;;1.90;;
59770;SDS011;45649;53.014;6.600;2022-07-03T16:50:59;2.10;;;1.90;;
59770;SDS011;45649;53.014;6.600;2022-07-03T16:53:27;2.27;;;1.80;;